sensor_id;sensor_type;location;lat;lon;timestamp;P1;durP1;ratioP1;P2;durP2;ratioP2
3922;SDS011;1976;51.694;6.256;2022-11-15T00:00:25;17.23;;;9.60;;
3922;SDS011;1976;51.694;6.256;2022-11-15T00:02:54;14.93;;;8.83;;
3922;SDS011;1976;51.694;6.256;2022-11-15T00:05:20;16.87;;;8.60;;
3922;SDS011;1976;51.694;6.256;2022-11-15T00:07:46;9.10;;;5.90;;
3922;SDS011;1976;51.694;6.256;2022-11-15T00:10:12;12.10;;;7.77;;
3922;SDS011;1976;51.694;6.256;2022-11-15T00:12:38;9.17;;;5.50;;
3922;SDS011;1976;51.694;6.256;2022-11-15T00:15:03;16.93;;;9.87;;
3922;SDS011;1976;51.694;6.256;2022-11-15T00:17:29;10.10;;;5.77;;
3922;SDS011;1976;51.694;6.256;2022-11-15T00:19:55;12.93;;;5.20;;
3922;SDS011;1976;51.694;6.256;2022-11-15T00:22:21;10.00;;;6.93;;
3922;SDS011;1976;51.694;6.256;2022-11-15T00:24:46;18.07;;;11.40;;
3922;SDS011;1976;51.694;6.256;2022-11-15T00:27:12;9.33;;;6.40;;
3922;SDS011;1976;51.694;6.256;2022-11-15T00:29:38;15.20;;;9.47;;
3922;SDS011;1976;51.694;6.256;2022-11-15T00:32:08;7.53;;;5.33;;
3922;SDS011;1976;51.694;6.256;2022-11-15T00:34:37;22.13;;;10.00;;
3922;SDS011;1976;51.694;6.256;2022-11-15T00:37:02;11.53;;;7.57;;
3922;SDS011;1976;51.694;6.256;2022-11-15T00:39:28;19.60;;;9.63;;
3922;SDS011;1976;51.694;6.256;2022-11-15T00:41:54;10.13;;;5.60;;
3922;SDS011;1976;51.694;6.256;2022-11-15T00:44:19;16.77;;;10.73;;
3922;SDS011;1976;51.694;6.256;2022-11-15T00:46:45;15.73;;;8.67;;
3922;SDS011;1976;51.694;6.256;2022-11-15T00:49:10;13.43;;;7.57;;
3922;SDS011;1976;51.694;6.256;2022-11-15T00:51:36;16.00;;;10.33;;
3922;SDS011;1976;51.694;6.256;2022-11-15T00:54:02;15.73;;;10.27;;
3922;SDS011;1976;51.694;6.256;2022-11-15T00:56:27;21.67;;;10.90;;
3922;SDS011;1976;51.694;6.256;2022-11-15T00:58:53;13.77;;;8.90;;
3922;SDS011;1976;51.694;6.256;2022-11-15T01:01:19;18.90;;;10.83;;
3922;SDS011;1976;51.694;6.256;2022-11-15T01:03:44;17.23;;;10.00;;
3922;SDS011;1976;51.694;6.256;2022-11-15T01:06:10;9.00;;;5.93;;
3922;SDS011;1976;51.694;6.256;2022-11-15T01:08:37;13.00;;;8.57;;
3922;SDS011;1976;51.694;6.256;2022-11-15T01:11:06;14.33;;;8.10;;
3922;SDS011;1976;51.694;6.256;2022-11-15T01:13:34;17.33;;;10.83;;
3922;SDS011;1976;51.694;6.256;2022-11-15T01:16:11;17.00;;;9.87;;
3922;SDS011;1976;51.694;6.256;2022-11-15T01:18:38;19.97;;;11.37;;
3922;SDS011;1976;51.694;6.256;2022-11-15T01:21:05;20.50;;;8.07;;
3922;SDS011;1976;51.694;6.256;2022-11-15T01:23:32;15.70;;;9.07;;
3922;SDS011;1976;51.694;6.256;2022-11-15T01:26:02;17.77;;;10.10;;
3922;SDS011;1976;51.694;6.256;2022-11-15T01:28:33;22.97;;;9.50;;
3922;SDS011;1976;51.694;6.256;2022-11-15T01:31:04;20.43;;;8.77;;
3922;SDS011;1976;51.694;6.256;2022-11-15T01:33:39;12.30;;;7.17;;
3922;SDS011;1976;51.694;6.256;2022-11-15T01:36:05;14.60;;;9.30;;
3922;SDS011;1976;51.694;6.256;2022-11-15T01:38:33;16.83;;;9.10;;
3922;SDS011;1976;51.694;6.256;2022-11-15T01:40:59;22.53;;;8.40;;
3922;SDS011;1976;51.694;6.256;2022-11-15T01:45:56;12.47;;;8.50;;
3922;SDS011;1976;51.694;6.256;2022-11-15T01:48:46;12.40;;;9.40;;
3922;SDS011;1976;51.694;6.256;2022-11-15T01:51:13;13.47;;;9.40;;
3922;SDS011;1976;51.694;6.256;2022-11-15T01:53:41;16.30;;;8.60;;
3922;SDS011;1976;51.694;6.256;2022-11-15T01:56:20;16.53;;;9.63;;
3922;SDS011;1976;51.694;6.256;2022-11-15T01:58:50;16.83;;;10.00;;
3922;SDS011;1976;51.694;6.256;2022-11-15T02:01:17;16.20;;;9.20;;
3922;SDS011;1976;51.694;6.256;2022-11-15T02:03:48;17.00;;;9.57;;
3922;SDS011;1976;51.694;6.256;2022-11-15T02:06:42;14.60;;;8.17;;
3922;SDS011;1976;51.694;6.256;2022-11-15T02:09:09;19.93;;;11.03;;
3922;SDS011;1976;51.694;6.256;2022-11-15T02:11:36;14.50;;;7.17;;
3922;SDS011;1976;51.694;6.256;2022-11-15T02:14:02;14.20;;;8.83;;
3922;SDS011;1976;51.694;6.256;2022-11-15T02:32:58;13.43;;;8.13;;
3922;SDS011;1976;51.694;6.256;2022-11-15T02:41:20;14.00;;;7.40;;
3922;SDS011;1976;51.694;6.256;2022-11-15T02:44:03;16.30;;;6.80;;
3922;SDS011;1976;51.694;6.256;2022-11-15T02:49:38;5.93;;;4.67;;
3922;SDS011;1976;51.694;6.256;2022-11-15T02:52:16;7.87;;;6.30;;
3922;SDS011;1976;51.694;6.256;2022-11-15T02:54:52;8.60;;;6.67;;
3922;SDS011;1976;51.694;6.256;2022-11-15T02:57:29;11.83;;;8.23;;
3922;SDS011;1976;51.694;6.256;2022-11-15T03:00:16;9.60;;;6.93;;
3922;SDS011;1976;51.694;6.256;2022-11-15T03:06:23;10.30;;;5.50;;
3922;SDS011;1976;51.694;6.256;2022-11-15T03:09:19;18.03;;;7.50;;
3922;SDS011;1976;51.694;6.256;2022-11-15T03:12:20;6.87;;;5.17;;
3922;SDS011;1976;51.694;6.256;2022-11-15T03:14:55;7.57;;;5.10;;
3922;SDS011;1976;51.694;6.256;2022-11-15T03:17:49;8.17;;;5.90;;
3922;SDS011;1976;51.694;6.256;2022-11-15T03:20:22;8.90;;;5.67;;
3922;SDS011;1976;51.694;6.256;2022-11-15T03:22:50;6.30;;;5.03;;
3922;SDS011;1976;51.694;6.256;2022-11-15T03:25:19;8.37;;;4.80;;
3922;SDS011;1976;51.694;6.256;2022-11-15T03:27:50;7.33;;;5.63;;
3922;SDS011;1976;51.694;6.256;2022-11-15T03:30:18;17.10;;;9.00;;
3922;SDS011;1976;51.694;6.256;2022-11-15T03:32:46;17.63;;;7.23;;
3922;SDS011;1976;51.694;6.256;2022-11-15T03:35:21;14.87;;;4.20;;
3922;SDS011;1976;51.694;6.256;2022-11-15T03:37:57;6.03;;;5.17;;
3922;SDS011;1976;51.694;6.256;2022-11-15T03:40:48;15.63;;;7.63;;
3922;SDS011;1976;51.694;6.256;2022-11-15T03:46:16;10.03;;;6.70;;
3922;SDS011;1976;51.694;6.256;2022-11-15T03:48:50;15.00;;;7.07;;
3922;SDS011;1976;51.694;6.256;2022-11-15T03:51:19;11.60;;;8.20;;
3922;SDS011;1976;51.694;6.256;2022-11-15T03:53:45;18.80;;;8.20;;
3922;SDS011;1976;51.694;6.256;2022-11-15T03:56:11;13.17;;;6.90;;
3922;SDS011;1976;51.694;6.256;2022-11-15T03:58:36;12.50;;;7.33;;
3922;SDS011;1976;51.694;6.256;2022-11-15T04:01:02;7.87;;;3.07;;
3922;SDS011;1976;51.694;6.256;2022-11-15T04:03:28;12.03;;;7.20;;
3922;SDS011;1976;51.694;6.256;2022-11-15T04:05:54;12.00;;;8.47;;
3922;SDS011;1976;51.694;6.256;2022-11-15T04:08:19;4.37;;;3.20;;
3922;SDS011;1976;51.694;6.256;2022-11-15T04:10:45;16.07;;;8.40;;
3922;SDS011;1976;51.694;6.256;2022-11-15T04:13:14;8.03;;;5.00;;
3922;SDS011;1976;51.694;6.256;2022-11-15T04:15:39;9.77;;;6.40;;
3922;SDS011;1976;51.694;6.256;2022-11-15T04:18:05;10.00;;;6.43;;
3922;SDS011;1976;51.694;6.256;2022-11-15T04:20:31;15.07;;;7.63;;
3922;SDS011;1976;51.694;6.256;2022-11-15T04:23:22;10.60;;;6.00;;
3922;SDS011;1976;51.694;6.256;2022-11-15T04:26:17;12.07;;;5.07;;
3922;SDS011;1976;51.694;6.256;2022-11-15T04:28:44;8.67;;;5.03;;
3922;SDS011;1976;51.694;6.256;2022-11-15T04:31:28;15.87;;;6.90;;
3922;SDS011;1976;51.694;6.256;2022-11-15T04:33:54;11.10;;;5.07;;
3922;SDS011;1976;51.694;6.256;2022-11-15T04:36:20;8.40;;;6.77;;
3922;SDS011;1976;51.694;6.256;2022-11-15T04:39:04;10.27;;;7.57;;
3922;SDS011;1976;51.694;6.256;2022-11-15T04:41:30;6.17;;;4.57;;
3922;SDS011;1976;51.694;6.256;2022-11-15T04:43:56;10.80;;;5.27;;
3922;SDS011;1976;51.694;6.256;2022-11-15T04:46:22;7.10;;;5.23;;
3922;SDS011;1976;51.694;6.256;2022-11-15T04:48:48;7.93;;;6.67;;
3922;SDS011;1976;51.694;6.256;2022-11-15T04:51:14;16.07;;;7.17;;
3922;SDS011;1976;51.694;6.256;2022-11-15T04:53:41;7.93;;;5.47;;
3922;SDS011;1976;51.694;6.256;2022-11-15T04:56:06;9.73;;;7.40;;
3922;SDS011;1976;51.694;6.256;2022-11-15T04:58:32;22.03;;;8.40;;
3922;SDS011;1976;51.694;6.256;2022-11-15T05:00:58;11.40;;;6.27;;
3922;SDS011;1976;51.694;6.256;2022-11-15T05:03:32;8.80;;;7.10;;
3922;SDS011;1976;51.694;6.256;2022-11-15T05:06:16;12.47;;;7.43;;
3922;SDS011;1976;51.694;6.256;2022-11-15T05:08:41;10.47;;;7.83;;
3922;SDS011;1976;51.694;6.256;2022-11-15T05:11:07;9.10;;;6.50;;
3922;SDS011;1976;51.694;6.256;2022-11-15T05:13:33;13.67;;;7.90;;
3922;SDS011;1976;51.694;6.256;2022-11-15T05:15:58;13.83;;;8.17;;
3922;SDS011;1976;51.694;6.256;2022-11-15T05:18:24;7.70;;;5.37;;
3922;SDS011;1976;51.694;6.256;2022-11-15T05:20:49;12.60;;;7.37;;
3922;SDS011;1976;51.694;6.256;2022-11-15T05:23:15;12.97;;;7.23;;
3922;SDS011;1976;51.694;6.256;2022-11-15T05:25:42;13.20;;;7.13;;
3922;SDS011;1976;51.694;6.256;2022-11-15T05:28:07;16.33;;;10.30;;
3922;SDS011;1976;51.694;6.256;2022-11-15T05:30:33;7.37;;;5.57;;
3922;SDS011;1976;51.694;6.256;2022-11-15T05:32:59;9.27;;;8.00;;
3922;SDS011;1976;51.694;6.256;2022-11-15T05:35:38;12.33;;;7.40;;
3922;SDS011;1976;51.694;6.256;2022-11-15T05:38:07;11.20;;;6.80;;
3922;SDS011;1976;51.694;6.256;2022-11-15T05:40:32;13.60;;;7.87;;
3922;SDS011;1976;51.694;6.256;2022-11-15T05:42:59;14.40;;;7.57;;
3922;SDS011;1976;51.694;6.256;2022-11-15T05:45:27;12.93;;;7.20;;
3922;SDS011;1976;51.694;6.256;2022-11-15T05:47:54;5.10;;;4.33;;
3922;SDS011;1976;51.694;6.256;2022-11-15T05:50:22;8.40;;;6.43;;
3922;SDS011;1976;51.694;6.256;2022-11-15T05:52:48;21.43;;;8.20;;
3922;SDS011;1976;51.694;6.256;2022-11-15T05:55:14;11.93;;;7.90;;
3922;SDS011;1976;51.694;6.256;2022-11-15T05:57:40;10.13;;;7.70;;
3922;SDS011;1976;51.694;6.256;2022-11-15T06:00:06;18.00;;;9.20;;
3922;SDS011;1976;51.694;6.256;2022-11-15T06:02:33;9.77;;;7.00;;
3922;SDS011;1976;51.694;6.256;2022-11-15T06:04:58;15.17;;;8.50;;
3922;SDS011;1976;51.694;6.256;2022-11-15T06:07:24;13.00;;;9.03;;
3922;SDS011;1976;51.694;6.256;2022-11-15T06:09:49;9.23;;;6.37;;
3922;SDS011;1976;51.694;6.256;2022-11-15T06:12:15;16.87;;;9.00;;
3922;SDS011;1976;51.694;6.256;2022-11-15T06:14:41;13.57;;;7.60;;
3922;SDS011;1976;51.694;6.256;2022-11-15T06:17:06;10.67;;;7.37;;
3922;SDS011;1976;51.694;6.256;2022-11-15T06:19:32;12.13;;;7.80;;
3922;SDS011;1976;51.694;6.256;2022-11-15T06:22:01;15.90;;;7.50;;
3922;SDS011;1976;51.694;6.256;2022-11-15T06:24:27;11.10;;;7.27;;
3922;SDS011;1976;51.694;6.256;2022-11-15T06:26:52;10.50;;;7.83;;
3922;SDS011;1976;51.694;6.256;2022-11-15T06:29:18;16.83;;;8.33;;
3922;SDS011;1976;51.694;6.256;2022-11-15T06:31:44;10.27;;;7.10;;
3922;SDS011;1976;51.694;6.256;2022-11-15T06:34:09;17.50;;;6.40;;
3922;SDS011;1976;51.694;6.256;2022-11-15T06:36:35;15.73;;;8.43;;
3922;SDS011;1976;51.694;6.256;2022-11-15T06:39:04;9.90;;;5.50;;
3922;SDS011;1976;51.694;6.256;2022-11-15T06:41:33;11.63;;;6.53;;
3922;SDS011;1976;51.694;6.256;2022-11-15T06:43:59;11.27;;;7.83;;
3922;SDS011;1976;51.694;6.256;2022-11-15T06:46:25;16.00;;;7.70;;
3922;SDS011;1976;51.694;6.256;2022-11-15T06:48:51;11.37;;;7.20;;
3922;SDS011;1976;51.694;6.256;2022-11-15T06:51:18;8.67;;;6.10;;
3922;SDS011;1976;51.694;6.256;2022-11-15T06:53:44;9.23;;;6.73;;
3922;SDS011;1976;51.694;6.256;2022-11-15T06:56:10;11.40;;;6.30;;
3922;SDS011;1976;51.694;6.256;2022-11-15T06:58:36;8.80;;;6.53;;
3922;SDS011;1976;51.694;6.256;2022-11-15T07:01:05;7.37;;;5.97;;
3922;SDS011;1976;51.694;6.256;2022-11-15T07:03:37;13.50;;;8.00;;
3922;SDS011;1976;51.694;6.256;2022-11-15T07:06:04;13.10;;;7.20;;
3922;SDS011;1976;51.694;6.256;2022-11-15T07:08:30;11.37;;;6.10;;
3922;SDS011;1976;51.694;6.256;2022-11-15T07:11:03;9.57;;;6.53;;
3922;SDS011;1976;51.694;6.256;2022-11-15T07:13:31;3.87;;;3.47;;
3922;SDS011;1976;51.694;6.256;2022-11-15T07:16:01;6.97;;;5.63;;
3922;SDS011;1976;51.694;6.256;2022-11-15T07:18:28;6.03;;;4.77;;
3922;SDS011;1976;51.694;6.256;2022-11-15T07:20:54;9.83;;;5.60;;
3922;SDS011;1976;51.694;6.256;2022-11-15T07:23:20;11.10;;;5.60;;
3922;SDS011;1976;51.694;6.256;2022-11-15T07:25:46;5.20;;;4.03;;
3922;SDS011;1976;51.694;6.256;2022-11-15T07:28:11;3.70;;;2.93;;
3922;SDS011;1976;51.694;6.256;2022-11-15T07:30:37;6.80;;;5.20;;
3922;SDS011;1976;51.694;6.256;2022-11-15T07:33:02;4.40;;;3.00;;
3922;SDS011;1976;51.694;6.256;2022-11-15T07:35:28;9.43;;;4.53;;
3922;SDS011;1976;51.694;6.256;2022-11-15T07:37:59;4.40;;;3.80;;
3922;SDS011;1976;51.694;6.256;2022-11-15T07:40:26;3.33;;;3.03;;
3922;SDS011;1976;51.694;6.256;2022-11-15T07:42:52;5.17;;;4.10;;
3922;SDS011;1976;51.694;6.256;2022-11-15T07:45:18;4.43;;;4.03;;
3922;SDS011;1976;51.694;6.256;2022-11-15T07:47:48;4.07;;;3.50;;
3922;SDS011;1976;51.694;6.256;2022-11-15T07:50:15;2.30;;;2.20;;
3922;SDS011;1976;51.694;6.256;2022-11-15T07:52:41;3.17;;;2.90;;
3922;SDS011;1976;51.694;6.256;2022-11-15T07:55:07;6.43;;;4.77;;
3922;SDS011;1976;51.694;6.256;2022-11-15T07:57:34;7.77;;;4.93;;
3922;SDS011;1976;51.694;6.256;2022-11-15T08:00:00;7.40;;;5.70;;
3922;SDS011;1976;51.694;6.256;2022-11-15T08:02:26;11.10;;;4.53;;
3922;SDS011;1976;51.694;6.256;2022-11-15T08:04:51;7.57;;;5.20;;
3922;SDS011;1976;51.694;6.256;2022-11-15T08:07:17;8.90;;;5.20;;
3922;SDS011;1976;51.694;6.256;2022-11-15T08:09:43;3.03;;;2.73;;
3922;SDS011;1976;51.694;6.256;2022-11-15T08:12:09;0.60;;;0.60;;
3922;SDS011;1976;51.694;6.256;2022-11-15T08:14:35;0.60;;;0.60;;
3922;SDS011;1976;51.694;6.256;2022-11-15T08:17:00;0.60;;;0.60;;
3922;SDS011;1976;51.694;6.256;2022-11-15T08:19:26;0.60;;;0.60;;
3922;SDS011;1976;51.694;6.256;2022-11-15T08:21:52;0.70;;;0.70;;
3922;SDS011;1976;51.694;6.256;2022-11-15T08:24:18;0.60;;;0.60;;
3922;SDS011;1976;51.694;6.256;2022-11-15T08:26:43;1.80;;;1.63;;
3922;SDS011;1976;51.694;6.256;2022-11-15T08:29:09;0.60;;;0.60;;
3922;SDS011;1976;51.694;6.256;2022-11-15T08:31:35;0.60;;;0.60;;
3922;SDS011;1976;51.694;6.256;2022-11-15T08:34:02;0.80;;;0.80;;
3922;SDS011;1976;51.694;6.256;2022-11-15T08:36:28;0.60;;;0.60;;
3922;SDS011;1976;51.694;6.256;2022-11-15T08:38:54;0.70;;;0.70;;
3922;SDS011;1976;51.694;6.256;2022-11-15T08:41:28;0.60;;;0.60;;
3922;SDS011;1976;51.694;6.256;2022-11-15T08:43:55;0.60;;;0.60;;
3922;SDS011;1976;51.694;6.256;2022-11-15T08:46:21;2.40;;;2.30;;
3922;SDS011;1976;51.694;6.256;2022-11-15T08:48:47;0.60;;;0.60;;
3922;SDS011;1976;51.694;6.256;2022-11-15T08:51:13;0.60;;;0.60;;
3922;SDS011;1976;51.694;6.256;2022-11-15T08:53:38;0.60;;;0.60;;
3922;SDS011;1976;51.694;6.256;2022-11-15T08:56:08;0.60;;;0.60;;
3922;SDS011;1976;51.694;6.256;2022-11-15T08:58:35;0.60;;;0.60;;
3922;SDS011;1976;51.694;6.256;2022-11-15T09:01:02;0.60;;;0.60;;
3922;SDS011;1976;51.694;6.256;2022-11-15T09:03:28;0.60;;;0.60;;
3922;SDS011;1976;51.694;6.256;2022-11-15T09:05:55;1.83;;;1.67;;
3922;SDS011;1976;51.694;6.256;2022-11-15T09:08:22;0.60;;;0.60;;
3922;SDS011;1976;51.694;6.256;2022-11-15T09:10:47;0.60;;;0.60;;
3922;SDS011;1976;51.694;6.256;2022-11-15T09:13:14;0.60;;;0.60;;
3922;SDS011;1976;51.694;6.256;2022-11-15T09:15:40;0.60;;;0.60;;
3922;SDS011;1976;51.694;6.256;2022-11-15T09:18:06;0.70;;;0.70;;
3922;SDS011;1976;51.694;6.256;2022-11-15T09:20:31;0.60;;;0.60;;
3922;SDS011;1976;51.694;6.256;2022-11-15T09:23:00;0.60;;;0.60;;
3922;SDS011;1976;51.694;6.256;2022-11-15T09:25:26;0.60;;;0.60;;
3922;SDS011;1976;51.694;6.256;2022-11-15T09:27:53;0.60;;;0.60;;
3922;SDS011;1976;51.694;6.256;2022-11-15T09:30:19;0.70;;;0.70;;
3922;SDS011;1976;51.694;6.256;2022-11-15T09:32:44;0.60;;;0.60;;
3922;SDS011;1976;51.694;6.256;2022-11-15T09:35:10;0.60;;;0.60;;
3922;SDS011;1976;51.694;6.256;2022-11-15T09:37:36;0.60;;;0.60;;
3922;SDS011;1976;51.694;6.256;2022-11-15T09:40:02;0.60;;;0.60;;
3922;SDS011;1976;51.694;6.256;2022-11-15T09:42:38;0.60;;;0.60;;
3922;SDS011;1976;51.694;6.256;2022-11-15T09:45:13;0.60;;;0.60;;
3922;SDS011;1976;51.694;6.256;2022-11-15T09:47:53;0.90;;;0.90;;
3922;SDS011;1976;51.694;6.256;2022-11-15T09:50:41;0.60;;;0.60;;
3922;SDS011;1976;51.694;6.256;2022-11-15T09:53:12;0.60;;;0.60;;
3922;SDS011;1976;51.694;6.256;2022-11-15T09:55:46;0.60;;;0.60;;
3922;SDS011;1976;51.694;6.256;2022-11-15T10:01:38;1.40;;;1.30;;
3922;SDS011;1976;51.694;6.256;2022-11-15T10:04:02;6.27;;;1.40;;
3922;SDS011;1976;51.694;6.256;2022-11-15T10:06:28;1.93;;;1.50;;
3922;SDS011;1976;51.694;6.256;2022-11-15T10:11:22;2.10;;;1.30;;
3922;SDS011;1976;51.694;6.256;2022-11-15T10:13:54;1.20;;;1.10;;
3922;SDS011;1976;51.694;6.256;2022-11-15T10:24:25;1.07;;;0.97;;
3922;SDS011;1976;51.694;6.256;2022-11-15T10:26:53;1.23;;;1.13;;
3922;SDS011;1976;51.694;6.256;2022-11-15T10:29:20;4.57;;;1.27;;
3922;SDS011;1976;51.694;6.256;2022-11-15T10:31:47;1.50;;;1.37;;
3922;SDS011;1976;51.694;6.256;2022-11-15T10:34:22;1.20;;;1.10;;
3922;SDS011;1976;51.694;6.256;2022-11-15T10:36:55;4.00;;;1.00;;
3922;SDS011;1976;51.694;6.256;2022-11-15T10:39:22;1.13;;;0.90;;
3922;SDS011;1976;51.694;6.256;2022-11-15T10:41:48;0.90;;;0.90;;
3922;SDS011;1976;51.694;6.256;2022-11-15T10:46:48;2.53;;;1.10;;
3922;SDS011;1976;51.694;6.256;2022-11-15T10:49:29;1.93;;;0.80;;
3922;SDS011;1976;51.694;6.256;2022-11-15T10:57:16;4.60;;;0.97;;
3922;SDS011;1976;51.694;6.256;2022-11-15T10:59:47;1.10;;;1.00;;
3922;SDS011;1976;51.694;6.256;2022-11-15T11:02:29;11.43;;;1.10;;
3922;SDS011;1976;51.694;6.256;2022-11-15T11:04:55;5.03;;;1.00;;
3922;SDS011;1976;51.694;6.256;2022-11-15T11:07:22;5.03;;;1.17;;
3922;SDS011;1976;51.694;6.256;2022-11-15T11:09:56;5.43;;;0.90;;
3922;SDS011;1976;51.694;6.256;2022-11-15T11:12:32;2.73;;;0.83;;
3922;SDS011;1976;51.694;6.256;2022-11-15T11:14:59;1.90;;;1.07;;
3922;SDS011;1976;51.694;6.256;2022-11-15T11:17:29;11.23;;;2.07;;
3922;SDS011;1976;51.694;6.256;2022-11-15T11:22:48;1.30;;;1.07;;
3922;SDS011;1976;51.694;6.256;2022-11-15T11:31:13;2.50;;;0.90;;
3922;SDS011;1976;51.694;6.256;2022-11-15T11:34:04;1.17;;;0.97;;
3922;SDS011;1976;51.694;6.256;2022-11-15T11:48:05;3.67;;;0.80;;
3922;SDS011;1976;51.694;6.256;2022-11-15T11:50:36;2.50;;;0.80;;
3922;SDS011;1976;51.694;6.256;2022-11-15T11:55:54;1.07;;;0.97;;
3922;SDS011;1976;51.694;6.256;2022-11-15T12:01:23;3.33;;;1.00;;
3922;SDS011;1976;51.694;6.256;2022-11-15T12:09:44;0.80;;;0.80;;
3922;SDS011;1976;51.694;6.256;2022-11-15T12:12:05;0.83;;;0.80;;
3922;SDS011;1976;51.694;6.256;2022-11-15T12:14:41;4.77;;;1.90;;
3922;SDS011;1976;51.694;6.256;2022-11-15T12:17:13;2.70;;;0.97;;
3922;SDS011;1976;51.694;6.256;2022-11-15T12:19:43;1.53;;;0.90;;
3922;SDS011;1976;51.694;6.256;2022-11-15T12:22:19;1.47;;;1.10;;
3922;SDS011;1976;51.694;6.256;2022-11-15T12:24:51;0.63;;;0.63;;
3922;SDS011;1976;51.694;6.256;2022-11-15T12:29:56;1.20;;;1.10;;
3922;SDS011;1976;51.694;6.256;2022-11-15T12:32:28;2.50;;;1.00;;
3922;SDS011;1976;51.694;6.256;2022-11-15T12:34:55;2.27;;;1.10;;
3922;SDS011;1976;51.694;6.256;2022-11-15T12:42:42;2.07;;;1.20;;
3922;SDS011;1976;51.694;6.256;2022-11-15T12:45:26;0.80;;;0.80;;
3922;SDS011;1976;51.694;6.256;2022-11-15T12:47:52;5.93;;;1.47;;
3922;SDS011;1976;51.694;6.256;2022-11-15T12:50:49;1.80;;;1.00;;
3922;SDS011;1976;51.694;6.256;2022-11-15T12:58:39;0.70;;;0.70;;
3922;SDS011;1976;51.694;6.256;2022-11-15T13:01:07;2.57;;;1.50;;
3922;SDS011;1976;51.694;6.256;2022-11-15T13:03:33;2.70;;;1.67;;
3922;SDS011;1976;51.694;6.256;2022-11-15T13:06:00;1.20;;;1.10;;
3922;SDS011;1976;51.694;6.256;2022-11-15T13:08:44;2.40;;;1.40;;
3922;SDS011;1976;51.694;6.256;2022-11-15T13:17:02;3.07;;;1.20;;
3922;SDS011;1976;51.694;6.256;2022-11-15T13:19:37;3.00;;;1.23;;
3922;SDS011;1976;51.694;6.256;2022-11-15T13:22:10;3.00;;;1.10;;
3922;SDS011;1976;51.694;6.256;2022-11-15T13:24:54;1.10;;;1.00;;
3922;SDS011;1976;51.694;6.256;2022-11-15T13:27:20;1.10;;;0.90;;
3922;SDS011;1976;51.694;6.256;2022-11-15T13:29:46;15.50;;;2.47;;
3922;SDS011;1976;51.694;6.256;2022-11-15T13:32:13;1.43;;;1.20;;
3922;SDS011;1976;51.694;6.256;2022-11-15T13:34:44;7.30;;;1.43;;
3922;SDS011;1976;51.694;6.256;2022-11-15T13:39:47;5.27;;;1.17;;
3922;SDS011;1976;51.694;6.256;2022-11-15T13:42:14;2.27;;;1.20;;
3922;SDS011;1976;51.694;6.256;2022-11-15T13:44:40;2.30;;;1.63;;
3922;SDS011;1976;51.694;6.256;2022-11-15T13:47:25;3.33;;;1.30;;
3922;SDS011;1976;51.694;6.256;2022-11-15T13:49:57;5.47;;;2.17;;
3922;SDS011;1976;51.694;6.256;2022-11-15T13:52:26;1.90;;;1.10;;
3922;SDS011;1976;51.694;6.256;2022-11-15T13:55:04;4.20;;;1.43;;
3922;SDS011;1976;51.694;6.256;2022-11-15T13:58:01;5.50;;;1.20;;
3922;SDS011;1976;51.694;6.256;2022-11-15T14:00:37;1.93;;;1.57;;
3922;SDS011;1976;51.694;6.256;2022-11-15T14:08:40;1.37;;;1.10;;
3922;SDS011;1976;51.694;6.256;2022-11-15T14:11:24;2.30;;;1.10;;
3922;SDS011;1976;51.694;6.256;2022-11-15T14:16:35;4.60;;;1.20;;
3922;SDS011;1976;51.694;6.256;2022-11-15T14:24:33;1.43;;;1.33;;
3922;SDS011;1976;51.694;6.256;2022-11-15T14:27:15;4.20;;;1.50;;
3922;SDS011;1976;51.694;6.256;2022-11-15T14:29:42;2.93;;;1.60;;
3922;SDS011;1976;51.694;6.256;2022-11-15T14:35:02;9.53;;;2.87;;
3922;SDS011;1976;51.694;6.256;2022-11-15T14:37:30;3.37;;;1.40;;
3922;SDS011;1976;51.694;6.256;2022-11-15T14:40:01;4.10;;;1.30;;
3922;SDS011;1976;51.694;6.256;2022-11-15T14:42:30;1.83;;;1.37;;
3922;SDS011;1976;51.694;6.256;2022-11-15T14:44:56;3.50;;;1.63;;
3922;SDS011;1976;51.694;6.256;2022-11-15T14:47:22;4.83;;;1.87;;
3922;SDS011;1976;51.694;6.256;2022-11-15T14:49:48;3.30;;;1.63;;
3922;SDS011;1976;51.694;6.256;2022-11-15T14:54:50;2.70;;;1.53;;
3922;SDS011;1976;51.694;6.256;2022-11-15T14:57:16;5.77;;;2.13;;
3922;SDS011;1976;51.694;6.256;2022-11-15T14:59:41;2.97;;;1.80;;
3922;SDS011;1976;51.694;6.256;2022-11-15T15:02:18;22.17;;;2.50;;
3922;SDS011;1976;51.694;6.256;2022-11-15T15:04:49;7.57;;;2.40;;
3922;SDS011;1976;51.694;6.256;2022-11-15T15:07:15;6.33;;;2.07;;
3922;SDS011;1976;51.694;6.256;2022-11-15T15:09:41;7.17;;;1.90;;
3922;SDS011;1976;51.694;6.256;2022-11-15T15:12:18;2.30;;;1.73;;
3922;SDS011;1976;51.694;6.256;2022-11-15T15:14:45;4.80;;;1.47;;
3922;SDS011;1976;51.694;6.256;2022-11-15T15:17:12;4.93;;;1.53;;
3922;SDS011;1976;51.694;6.256;2022-11-15T15:19:38;3.30;;;1.50;;
3922;SDS011;1976;51.694;6.256;2022-11-15T15:22:05;3.70;;;1.33;;
3922;SDS011;1976;51.694;6.256;2022-11-15T15:24:33;3.93;;;1.50;;
3922;SDS011;1976;51.694;6.256;2022-11-15T15:26:59;2.40;;;1.67;;
3922;SDS011;1976;51.694;6.256;2022-11-15T15:29:25;6.90;;;1.97;;
3922;SDS011;1976;51.694;6.256;2022-11-15T15:31:50;5.80;;;2.33;;
3922;SDS011;1976;51.694;6.256;2022-11-15T15:34:16;4.63;;;1.90;;
3922;SDS011;1976;51.694;6.256;2022-11-15T15:36:42;5.90;;;2.27;;
3922;SDS011;1976;51.694;6.256;2022-11-15T15:39:08;9.03;;;2.30;;
3922;SDS011;1976;51.694;6.256;2022-11-15T15:41:36;19.03;;;8.90;;
3922;SDS011;1976;51.694;6.256;2022-11-15T15:44:01;9.17;;;4.40;;
3922;SDS011;1976;51.694;6.256;2022-11-15T15:46:27;7.33;;;2.40;;
3922;SDS011;1976;51.694;6.256;2022-11-15T15:48:53;6.30;;;2.57;;
3922;SDS011;1976;51.694;6.256;2022-11-15T15:51:18;4.80;;;2.60;;
3922;SDS011;1976;51.694;6.256;2022-11-15T15:53:44;6.33;;;2.30;;
3922;SDS011;1976;51.694;6.256;2022-11-15T15:56:10;5.77;;;2.23;;
3922;SDS011;1976;51.694;6.256;2022-11-15T15:58:35;6.10;;;3.30;;
3922;SDS011;1976;51.694;6.256;2022-11-15T16:01:01;2.30;;;1.67;;
3922;SDS011;1976;51.694;6.256;2022-11-15T16:03:27;11.47;;;5.33;;
3922;SDS011;1976;51.694;6.256;2022-11-15T16:05:53;5.20;;;2.53;;
3922;SDS011;1976;51.694;6.256;2022-11-15T16:08:20;3.93;;;2.63;;
3922;SDS011;1976;51.694;6.256;2022-11-15T16:10:48;8.10;;;1.70;;
3922;SDS011;1976;51.694;6.256;2022-11-15T16:13:14;3.07;;;1.87;;
3922;SDS011;1976;51.694;6.256;2022-11-15T16:15:40;5.33;;;2.70;;
3922;SDS011;1976;51.694;6.256;2022-11-15T16:18:09;8.20;;;4.67;;
3922;SDS011;1976;51.694;6.256;2022-11-15T16:20:44;8.30;;;4.50;;
3922;SDS011;1976;51.694;6.256;2022-11-15T16:23:14;6.30;;;2.60;;
3922;SDS011;1976;51.694;6.256;2022-11-15T16:25:45;4.07;;;2.70;;
3922;SDS011;1976;51.694;6.256;2022-11-15T16:28:30;6.50;;;2.10;;
3922;SDS011;1976;51.694;6.256;2022-11-15T16:33:25;13.47;;;3.70;;
3922;SDS011;1976;51.694;6.256;2022-11-15T16:35:51;6.83;;;2.70;;
3922;SDS011;1976;51.694;6.256;2022-11-15T16:38:17;9.33;;;3.80;;
3922;SDS011;1976;51.694;6.256;2022-11-15T16:40:43;11.43;;;4.70;;
3922;SDS011;1976;51.694;6.256;2022-11-15T16:43:09;12.30;;;3.90;;
3922;SDS011;1976;51.694;6.256;2022-11-15T16:45:35;5.63;;;3.33;;
3922;SDS011;1976;51.694;6.256;2022-11-15T16:48:01;2.83;;;2.23;;
3922;SDS011;1976;51.694;6.256;2022-11-15T16:50:31;4.50;;;2.67;;
3922;SDS011;1976;51.694;6.256;2022-11-15T16:53:04;5.30;;;2.13;;
3922;SDS011;1976;51.694;6.256;2022-11-15T16:55:30;4.73;;;2.20;;
3922;SDS011;1976;51.694;6.256;2022-11-15T16:57:56;4.97;;;2.67;;
3922;SDS011;1976;51.694;6.256;2022-11-15T17:00:25;3.23;;;2.17;;
3922;SDS011;1976;51.694;6.256;2022-11-15T17:02:52;3.67;;;2.37;;
3922;SDS011;1976;51.694;6.256;2022-11-15T17:05:18;2.27;;;2.07;;
3922;SDS011;1976;51.694;6.256;2022-11-15T17:07:47;11.00;;;2.80;;
3922;SDS011;1976;51.694;6.256;2022-11-15T17:10:14;6.30;;;3.10;;
3922;SDS011;1976;51.694;6.256;2022-11-15T17:12:40;2.43;;;1.40;;
3922;SDS011;1976;51.694;6.256;2022-11-15T17:15:06;4.40;;;2.07;;
3922;SDS011;1976;51.694;6.256;2022-11-15T17:17:32;1.83;;;1.70;;
3922;SDS011;1976;51.694;6.256;2022-11-15T17:19:58;3.40;;;2.50;;
3922;SDS011;1976;51.694;6.256;2022-11-15T17:22:24;3.40;;;2.57;;
3922;SDS011;1976;51.694;6.256;2022-11-15T17:24:49;3.20;;;1.87;;
3922;SDS011;1976;51.694;6.256;2022-11-15T17:27:15;2.50;;;2.30;;
3922;SDS011;1976;51.694;6.256;2022-11-15T17:29:41;7.10;;;2.47;;
3922;SDS011;1976;51.694;6.256;2022-11-15T17:32:07;2.17;;;1.83;;